Time;durP1;ratioP1;P1;durP2;ratioP2;P2;SDS_P1;SDS_P2;PMS_P1;PMS_P2;Temp;Humidity;BMP_temperature;BMP_pressure;BME280_temperature;BME280_humidity;BME280_pressure;Samples;Min_cycle;Max_cycle;Signal;HPM_P1;HPM_P2
2022/03/10 00:01:57;;;;;;;37.58;20.77;;;;;;;;;;4954074;29;20062;-59
2022/03/10 00:04:24;;;;;;;44.17;21.63;;;;;;;;;;4954114;29;20106;-59
2022/03/10 00:06:50;;;;;;;41.83;22.38;;;;;;;;;;4954333;28;20023;-61
2022/03/10 00:09:16;;;;;;;37.50;21.50;;;;;;;;;;4954389;29;20054;-59
2022/03/10 00:11:42;;;;;;;36.28;20.50;;;;;;;;;;4954558;29;20100;-60
2022/03/10 00:14:10;;;;;;;36.22;19.45;;;;;;;;;;4954156;29;20031;-59
2022/03/10 00:16:36;;;;;;;37.10;19.90;;;;;;;;;;4954222;28;20031;-60
2022/03/10 00:19:03;;;;;;;40.00;22.15;;;;;;;;;;4954501;29;20027;-61
2022/03/10 00:21:29;;;;;;;34.97;20.25;;;;;;;;;;4953996;29;20058;-63
2022/03/10 00:23:55;;;;;;;26.83;15.20;;;;;;;;;;4954027;29;20054;-60
2022/03/10 00:26:21;;;;;;;27.98;14.85;;;;;;;;;;4954192;29;20110;-60
2022/03/10 00:28:47;;;;;;;24.63;14.02;;;;;;;;;;4954063;29;20031;-59
2022/03/10 00:31:13;;;;;;;24.45;13.15;;;;;;;;;;4954237;29;20027;-60
2022/03/10 00:33:39;;;;;;;28.98;15.93;;;;;;;;;;4953551;29;20031;-60
2022/03/10 00:36:06;;;;;;;26.25;15.63;;;;;;;;;;4954000;28;20043;-60
2022/03/10 00:38:32;;;;;;;28.67;16.20;;;;;;;;;;4953428;29;20642;-60
2022/03/10 00:40:59;;;;;;;27.20;15.52;;;;;;;;;;4953876;29;20081;-60
2022/03/10 00:43:26;;;;;;;26.38;15.32;;;;;;;;;;4953971;29;20402;-60
2022/03/10 00:45:52;;;;;;;28.17;16.02;;;;;;;;;;4953860;28;20056;-61
2022/03/10 00:48:18;;;;;;;25.83;15.15;;;;;;;;;;4953993;29;20042;-60
2022/03/10 00:50:44;;;;;;;26.70;15.43;;;;;;;;;;4953659;29;20038;-59
2022/03/10 00:53:11;;;;;;;28.40;15.40;;;;;;;;;;4935456;29;20538;-58
2022/03/10 00:55:37;;;;;;;31.35;16.95;;;;;;;;;;4953389;29;20023;-59
2022/03/10 00:58:03;;;;;;;28.02;16.17;;;;;;;;;;4953534;28;20030;-59
2022/03/10 01:00:30;;;;;;;23.35;14.82;;;;;;;;;;4953352;28;20020;-59
2022/03/10 01:02:57;;;;;;;28.60;15.43;;;;;;;;;;4952856;28;20489;-59
2022/03/10 01:05:23;;;;;;;25.90;15.95;;;;;;;;;;4953135;29;20027;-60
2022/03/10 01:07:49;;;;;;;24.98;15.13;;;;;;;;;;4952953;28;20776;-59
2022/03/10 01:10:15;;;;;;;27.63;15.07;;;;;;;;;;4953149;29;20032;-58
2022/03/10 01:12:44;;;;;;;28.02;16.02;;;;;;;;;;4953082;29;20034;-61
2022/03/10 01:15:11;;;;;;;28.77;16.50;;;;;;;;;;4952878;29;20455;-60
2022/03/10 01:17:37;;;;;;;28.40;16.50;;;;;;;;;;4952852;29;20427;-59
2022/03/10 01:20:04;;;;;;;27.83;16.50;;;;;;;;;;4953324;29;20063;-60
2022/03/10 01:22:30;;;;;;;27.60;15.52;;;;;;;;;;4935542;29;20044;-60
2022/03/10 01:24:56;;;;;;;29.17;17.23;;;;;;;;;;4952953;29;20034;-59
2022/03/10 01:27:22;;;;;;;25.20;15.27;;;;;;;;;;4953261;29;20031;-59
2022/03/10 01:29:48;;;;;;;30.27;16.48;;;;;;;;;;4953303;29;20035;-59
2022/03/10 01:32:14;;;;;;;27.45;15.98;;;;;;;;;;4952968;29;20086;-59
2022/03/10 01:34:40;;;;;;;30.13;16.98;;;;;;;;;;4952113;29;20483;-59
2022/03/10 01:37:06;;;;;;;29.40;17.77;;;;;;;;;;4952289;29;20035;-60
2022/03/10 01:39:32;;;;;;;30.33;17.50;;;;;;;;;;4952727;29;20034;-65
2022/03/10 01:41:59;;;;;;;27.50;16.60;;;;;;;;;;4952986;29;20122;-60
2022/03/10 01:44:25;;;;;;;22.50;12.48;;;;;;;;;;4952809;29;20516;-61
2022/03/10 01:46:52;;;;;;;25.92;15.85;;;;;;;;;;4952770;29;20024;-59
2022/03/10 01:49:18;;;;;;;25.70;14.88;;;;;;;;;;4952932;29;20023;-59
2022/03/10 01:51:44;;;;;;;25.42;14.93;;;;;;;;;;4952788;29;20106;-58
2022/03/10 01:54:11;;;;;;;24.25;14.88;;;;;;;;;;4952803;29;20207;-59
2022/03/10 01:56:38;;;;;;;24.00;14.35;;;;;;;;;;4952957;29;20058;-58
2022/03/10 01:59:04;;;;;;;23.70;14.40;;;;;;;;;;4952610;29;20023;-60
2022/03/10 02:01:31;;;;;;;21.40;12.48;;;;;;;;;;4952323;28;20057;-58
2022/03/10 02:03:58;;;;;;;22.48;13.10;;;;;;;;;;4952416;29;20475;-58
2022/03/10 02:06:24;;;;;;;21.17;12.93;;;;;;;;;;4950412;29;20031;-59
2022/03/10 02:11:37;;;;;;;24.70;13.85;;;;;;;;;;4952628;28;20049;-60
2022/03/10 02:17:19;;;;;;;25.88;14.43;;;;;;;;;;4952426;29;20383;-60
2022/03/10 02:19:33;;;;;;;23.15;13.68;;;;;;;;;;4952686;29;20496;-59
2022/03/10 02:22:10;;;;;;;26.98;14.25;;;;;;;;;;4952215;29;20090;-61
2022/03/10 02:24:36;;;;;;;23.65;13.93;;;;;;;;;;4952202;28;20072;-59
2022/03/10 02:27:12;;;;;;;27.08;15.65;;;;;;;;;;4952371;29;20526;-59
2022/03/10 02:29:38;;;;;;;25.52;14.75;;;;;;;;;;4952030;28;20687;-59
2022/03/10 02:32:04;;;;;;;26.77;15.48;;;;;;;;;;4952109;29;20031;-60
2022/03/10 02:34:30;;;;;;;24.58;13.02;;;;;;;;;;4952318;29;20432;-60
2022/03/10 02:36:56;;;;;;;26.95;15.02;;;;;;;;;;4952182;29;20042;-59
2022/03/10 02:39:22;;;;;;;28.15;15.75;;;;;;;;;;4952082;29;20124;-60
2022/03/10 02:41:49;;;;;;;29.15;15.93;;;;;;;;;;4952303;29;20447;-59
2022/03/10 02:44:15;;;;;;;30.23;16.17;;;;;;;;;;4946055;29;20031;-60
2022/03/10 02:46:41;;;;;;;29.02;16.08;;;;;;;;;;4952252;29;20383;-60
2022/03/10 02:49:07;;;;;;;28.45;16.08;;;;;;;;;;4952236;29;20462;-60
2022/03/10 02:51:33;;;;;;;28.10;15.93;;;;;;;;;;4952219;28;20109;-62
2022/03/10 02:53:59;;;;;;;27.50;13.43;;;;;;;;;;4952047;29;20446;-60
2022/03/10 02:56:25;;;;;;;28.85;16.50;;;;;;;;;;4952028;28;20506;-59
2022/03/10 02:58:51;;;;;;;30.85;16.77;;;;;;;;;;4951956;29;20089;-59
2022/03/10 03:01:17;;;;;;;29.80;16.15;;;;;;;;;;4952151;28;20110;-60
2022/03/10 03:03:43;;;;;;;33.05;18.50;;;;;;;;;;4953401;29;20042;-60
2022/03/10 03:06:09;;;;;;;31.10;17.25;;;;;;;;;;4952693;29;20020;-60
2022/03/10 03:08:35;;;;;;;31.05;16.80;;;;;;;;;;4951926;29;20031;-60
2022/03/10 03:11:01;;;;;;;31.80;17.65;;;;;;;;;;4952148;29;20031;-60
2022/03/10 03:13:27;;;;;;;31.42;17.48;;;;;;;;;;4951852;29;20038;-59
2022/03/10 06:53:29;;;;;;;18.35;11.23;;;;;;;;;;5045110;23;20042;-59
2022/03/10 06:55:55;;;;;;;23.55;12.35;;;;;;;;;;4993405;28;20422;-59
2022/03/10 06:58:21;;;;;;;43.90;19.77;;;;;;;;;;4994295;28;20022;-60
2022/03/10 07:00:47;;;;;;;28.42;14.35;;;;;;;;;;4977055;28;20454;-60
2022/03/10 07:03:14;;;;;;;41.05;19.63;;;;;;;;;;4994300;28;20034;-60
2022/03/10 07:05:41;;;;;;;33.88;16.25;;;;;;;;;;4994619;28;20376;-60
2022/03/10 07:08:08;;;;;;;23.20;13.40;;;;;;;;;;4994356;28;20022;-59
2022/03/10 07:10:34;;;;;;;15.32;7.47;;;;;;;;;;4976791;28;20034;-59
2022/03/10 07:13:00;;;;;;;18.95;8.25;;;;;;;;;;4994294;28;20034;-63
2022/03/10 07:15:26;;;;;;;19.95;9.52;;;;;;;;;;4992941;28;20109;-59
2022/03/10 07:17:52;;;;;;;31.83;15.80;;;;;;;;;;4993784;28;20164;-59
2022/03/10 07:20:18;;;;;;;26.10;13.18;;;;;;;;;;4975105;28;20171;-61
2022/03/10 07:22:48;;;;;;;24.35;11.82;;;;;;;;;;4989376;28;20794;-59
2022/03/10 07:25:14;;;;;;;18.83;10.65;;;;;;;;;;4989609;28;20026;-59
2022/03/10 07:27:40;;;;;;;19.95;11.50;;;;;;;;;;4973958;28;20027;-59
2022/03/10 07:30:07;;;;;;;20.80;10.40;;;;;;;;;;4988040;28;20093;-60
2022/03/10 07:32:33;;;;;;;17.45;9.35;;;;;;;;;;4989780;28;20085;-59
2022/03/10 07:34:59;;;;;;;18.02;10.07;;;;;;;;;;4972376;28;20470;-59
2022/03/10 07:37:25;;;;;;;17.60;9.65;;;;;;;;;;4991355;28;20525;-59
2022/03/10 07:39:51;;;;;;;23.48;11.43;;;;;;;;;;4971923;28;20469;-60
2022/03/10 07:42:18;;;;;;;16.33;9.02;;;;;;;;;;4989426;28;20093;-60
2022/03/10 07:44:44;;;;;;;18.08;9.20;;;;;;;;;;4989333;28;20061;-60
2022/03/10 07:47:10;;;;;;;16.65;7.53;;;;;;;;;;4990409;28;20026;-59
2022/03/10 07:49:36;;;;;;;27.40;15.65;;;;;;;;;;4989473;28;20501;-60
2022/03/10 07:52:02;;;;;;;37.28;19.67;;;;;;;;;;4964077;28;20669;-60
2022/03/10 07:54:28;;;;;;;18.40;10.02;;;;;;;;;;4952233;28;20039;-61
2022/03/10 07:56:55;;;;;;;18.42;10.23;;;;;;;;;;4967129;28;20027;-60
2022/03/10 07:59:21;;;;;;;14.93;8.75;;;;;;;;;;4960889;28;20038;-61
2022/03/10 08:01:47;;;;;;;14.45;8.35;;;;;;;;;;4960524;28;20043;-61
2022/03/10 08:04:13;;;;;;;17.73;10.02;;;;;;;;;;4955926;28;20041;-62
2022/03/10 08:06:39;;;;;;;14.63;8.43;;;;;;;;;;4972735;28;20114;-62
2022/03/10 08:09:06;;;;;;;20.70;10.40;;;;;;;;;;4973914;28;20034;-62
2022/03/10 08:11:32;;;;;;;13.43;8.07;;;;;;;;;;4973935;28;20023;-61
2022/03/10 08:13:58;;;;;;;11.73;6.75;;;;;;;;;;4973606;28;20430;-61
2022/03/10 08:16:24;;;;;;;13.30;6.82;;;;;;;;;;4955662;28;20039;-61
2022/03/10 08:18:50;;;;;;;17.02;9.95;;;;;;;;;;4955598;28;20042;-62
2022/03/10 08:21:17;;;;;;;15.90;9.93;;;;;;;;;;4973076;28;20050;-62
2022/03/10 08:23:43;;;;;;;30.42;18.65;;;;;;;;;;4973409;28;20042;-62
2022/03/10 08:26:09;;;;;;;17.42;8.35;;;;;;;;;;4973418;28;20545;-61
2022/03/10 08:28:36;;;;;;;20.00;12.75;;;;;;;;;;4973550;28;20030;-61
2022/03/10 08:31:04;;;;;;;17.92;9.30;;;;;;;;;;4973039;28;20443;-61
2022/03/10 08:33:30;;;;;;;20.15;9.55;;;;;;;;;;4956348;28;20053;-60
2022/03/10 08:35:56;;;;;;;19.13;9.55;;;;;;;;;;4973585;28;20080;-61
2022/03/10 08:38:22;;;;;;;14.32;6.40;;;;;;;;;;4973407;28;20398;-60
2022/03/10 08:40:48;;;;;;;8.65;4.53;;;;;;;;;;4973255;28;20035;-61
2022/03/10 08:43:15;;;;;;;11.52;6.22;;;;;;;;;;4973439;28;20606;-60
2022/03/10 08:45:42;;;;;;;19.20;10.98;;;;;;;;;;4973014;28;20023;-61
2022/03/10 08:48:08;;;;;;;33.10;14.80;;;;;;;;;;4973079;28;20057;-62
2022/03/10 08:50:35;;;;;;;26.50;12.02;;;;;;;;;;4973113;28;20030;-63
2022/03/10 08:53:01;;;;;;;21.73;10.52;;;;;;;;;;4972423;28;20113;-61
2022/03/10 08:55:27;;;;;;;22.23;11.05;;;;;;;;;;4973020;28;20082;-60
2022/03/10 08:57:55;;;;;;;17.40;7.50;;;;;;;;;;4973019;28;20023;-61
2022/03/10 09:00:21;;;;;;;20.63;11.25;;;;;;;;;;4973016;28;20019;-62
2022/03/10 09:02:47;;;;;;;17.13;8.85;;;;;;;;;;4972668;28;20522;-61
2022/03/10 09:05:13;;;;;;;19.02;9.20;;;;;;;;;;4971782;28;20031;-61
2022/03/10 09:07:40;;;;;;;18.63;10.05;;;;;;;;;;4972607;28;20062;-62
2022/03/10 09:10:07;;;;;;;16.33;9.38;;;;;;;;;;4972861;28;20027;-61
2022/03/10 09:12:33;;;;;;;16.98;9.98;;;;;;;;;;4972582;28;20020;-61
2022/03/10 09:14:59;;;;;;;21.25;10.38;;;;;;;;;;4972573;28;20031;-60
2022/03/10 09:17:26;;;;;;;18.77;9.68;;;;;;;;;;4971923;28;20039;-61
2022/03/10 09:19:52;;;;;;;16.88;10.30;;;;;;;;;;4972086;28;20391;-61
2022/03/10 09:22:18;;;;;;;16.55;9.98;;;;;;;;;;4971885;28;20055;-61
2022/03/10 09:24:44;;;;;;;19.55;9.95;;;;;;;;;;4972134;28;20030;-61
2022/03/10 09:27:10;;;;;;;16.63;9.48;;;;;;;;;;4974675;28;20122;-61
2022/03/10 09:29:37;;;;;;;12.00;5.72;;;;;;;;;;4973744;28;20035;-63
2022/03/10 09:32:03;;;;;;;17.48;9.45;;;;;;;;;;4954953;28;20122;-60
2022/03/10 09:34:29;;;;;;;33.20;17.35;;;;;;;;;;4973746;28;20023;-62
2022/03/10 09:36:55;;;;;;;19.85;11.05;;;;;;;;;;4973077;28;20031;-64
2022/03/10 09:39:22;;;;;;;35.80;17.35;;;;;;;;;;4972370;28;20489;-63
2022/03/10 09:41:48;;;;;;;17.38;8.85;;;;;;;;;;4972266;28;20466;-61
2022/03/10 09:44:18;;;;;;;17.35;9.00;;;;;;;;;;4972318;28;20062;-60
2022/03/10 09:46:47;;;;;;;26.15;14.75;;;;;;;;;;4971588;28;20035;-62
2022/03/10 09:49:13;;;;;;;19.55;11.70;;;;;;;;;;4971835;28;20019;-60
2022/03/10 09:51:39;;;;;;;18.52;9.50;;;;;;;;;;4971229;28;20038;-67
2022/03/10 09:54:05;;;;;;;16.48;8.93;;;;;;;;;;4972210;28;20139;-65
2022/03/10 09:56:32;;;;;;;18.33;9.20;;;;;;;;;;4971968;28;20371;-64
2022/03/10 09:58:58;;;;;;;23.10;11.60;;;;;;;;;;4971760;28;20088;-62
2022/03/10 10:01:24;;;;;;;16.42;10.05;;;;;;;;;;4971608;28;20042;-61
2022/03/10 10:03:50;;;;;;;22.45;12.15;;;;;;;;;;4954256;28;20406;-61
2022/03/10 10:06:16;;;;;;;25.60;14.35;;;;;;;;;;4971766;28;20490;-61
2022/03/10 10:08:42;;;;;;;43.95;20.73;;;;;;;;;;4971932;28;20053;-61
2022/03/10 10:11:15;;;;;;;25.17;12.18;;;;;;;;;;4971386;28;20025;-61
2022/03/10 10:13:42;;;;;;;17.42;10.00;;;;;;;;;;4971685;28;20166;-62
2022/03/10 10:16:17;;;;;;;13.85;7.88;;;;;;;;;;4971330;28;20019;-62
2022/03/10 10:18:43;;;;;;;16.23;7.38;;;;;;;;;;4971663;28;20030;-61
2022/03/10 10:21:14;;;;;;;13.45;7.97;;;;;;;;;;4970750;28;20510;-59
2022/03/10 10:23:40;;;;;;;16.30;8.48;;;;;;;;;;4970101;28;20031;-61
2022/03/10 10:26:09;;;;;;;16.40;9.50;;;;;;;;;;4970547;28;20029;-62
2022/03/10 10:28:39;;;;;;;19.33;10.60;;;;;;;;;;4968052;28;20025;-60
2022/03/10 10:31:07;;;;;;;18.80;9.93;;;;;;;;;;4971422;28;20030;-60
2022/03/10 10:33:34;;;;;;;19.67;11.10;;;;;;;;;;4958164;28;20508;-61
2022/03/10 10:36:23;;;;;;;26.20;12.80;;;;;;;;;;4975649;28;20110;-61
2022/03/10 10:38:50;;;;;;;9.20;4.45;;;;;;;;;;4974776;28;20034;-61
2022/03/10 10:41:19;;;;;;;10.52;6.07;;;;;;;;;;4958279;28;20136;-62
2022/03/10 10:43:47;;;;;;;14.07;7.90;;;;;;;;;;4958542;28;20033;-60
2022/03/10 10:46:28;;;;;;;14.63;8.07;;;;;;;;;;4968390;28;20130;-63
2022/03/10 10:48:55;;;;;;;16.63;10.15;;;;;;;;;;4966504;28;20474;-62
2022/03/10 10:51:30;;;;;;;17.63;9.95;;;;;;;;;;4973949;28;20490;-61
2022/03/10 10:53:57;;;;;;;16.50;9.70;;;;;;;;;;4974930;28;20030;-63
2022/03/10 10:56:23;;;;;;;18.90;9.70;;;;;;;;;;4975131;28;20031;-65
2022/03/10 10:58:52;;;;;;;21.77;12.10;;;;;;;;;;4974785;28;20034;-63
2022/03/10 11:01:31;;;;;;;25.00;12.73;;;;;;;;;;4974776;28;20027;-62
2022/03/10 11:03:57;;;;;;;22.58;11.68;;;;;;;;;;4975007;28;20027;-63
2022/03/10 11:06:24;;;;;;;19.70;10.60;;;;;;;;;;4974754;28;20063;-62
2022/03/10 11:08:51;;;;;;;15.77;9.88;;;;;;;;;;4974974;28;20121;-62
2022/03/10 11:11:17;;;;;;;16.70;9.73;;;;;;;;;;4974580;28;20027;-61
2022/03/10 11:13:43;;;;;;;21.70;10.90;;;;;;;;;;4974778;28;20089;-62
2022/03/10 11:16:09;;;;;;;18.23;9.80;;;;;;;;;;4974680;28;20018;-60
2022/03/10 11:18:36;;;;;;;16.63;10.23;;;;;;;;;;4974212;28;20027;-61
2022/03/10 11:21:22;;;;;;;18.33;10.57;;;;;;;;;;4973772;28;20656;-61
2022/03/10 11:24:09;;;;;;;17.88;10.65;;;;;;;;;;4974416;28;20027;-61
2022/03/10 11:26:41;;;;;;;26.80;14.10;;;;;;;;;;4974403;28;20030;-61
2022/03/10 11:29:08;;;;;;;18.57;11.37;;;;;;;;;;4974141;28;20039;-63
2022/03/10 11:31:34;;;;;;;19.17;11.02;;;;;;;;;;4974274;28;20261;-61
2022/03/10 11:34:01;;;;;;;23.10;13.35;;;;;;;;;;4974354;28;20051;-61
2022/03/10 11:36:30;;;;;;;29.80;14.07;;;;;;;;;;4974451;28;20035;-63
2022/03/10 11:38:57;;;;;;;24.88;13.75;;;;;;;;;;4973650;28;20030;-62
2022/03/10 11:41:27;;;;;;;20.05;11.52;;;;;;;;;;4973065;28;20034;-61
2022/03/10 11:43:58;;;;;;;22.00;11.45;;;;;;;;;;4973968;28;20035;-62
2022/03/10 11:46:29;;;;;;;30.55;14.32;;;;;;;;;;4973672;28;20041;-61
2022/03/10 11:49:01;;;;;;;24.65;13.50;;;;;;;;;;4974003;28;20051;-61
2022/03/10 11:51:42;;;;;;;26.48;15.02;;;;;;;;;;4973292;28;20035;-60
2022/03/10 11:54:08;;;;;;;31.42;16.40;;;;;;;;;;4973884;28;20201;-60
2022/03/10 11:56:40;;;;;;;47.47;23.63;;;;;;;;;;4973632;28;20027;-64
2022/03/10 11:59:25;;;;;;;30.92;17.08;;;;;;;;;;4974273;28;20038;-61
2022/03/10 12:01:52;;;;;;;24.65;13.60;;;;;;;;;;4973749;28;20184;-60
2022/03/10 12:04:20;;;;;;;24.40;12.98;;;;;;;;;;4973893;28;20031;-61
2022/03/10 12:06:56;;;;;;;35.45;18.35;;;;;;;;;;4973824;28;20079;-62
2022/03/10 12:09:41;;;;;;;26.75;13.95;;;;;;;;;;4973377;28;20110;-63
2022/03/10 12:12:18;;;;;;;23.65;13.60;;;;;;;;;;4973912;28;20030;-62
2022/03/10 12:14:45;;;;;;;24.13;12.90;;;;;;;;;;4973238;28;20031;-67
2022/03/10 12:17:29;;;;;;;27.67;14.88;;;;;;;;;;4955558;28;20038;-62
2022/03/10 12:20:14;;;;;;;29.20;15.68;;;;;;;;;;4974058;28;20089;-61
2022/03/10 12:22:41;;;;;;;34.58;16.67;;;;;;;;;;4972787;28;20145;-59
2022/03/10 12:25:20;;;;;;;30.92;17.25;;;;;;;;;;4973413;28;20022;-59
2022/03/10 12:27:53;;;;;;;28.35;13.50;;;;;;;;;;4973162;28;20025;-62
2022/03/10 12:30:24;;;;;;;25.02;14.52;;;;;;;;;;4973408;28;20093;-62
2022/03/10 12:32:51;;;;;;;23.90;15.20;;;;;;;;;;4972934;28;20101;-59
2022/03/10 12:35:21;;;;;;;26.10;14.35;;;;;;;;;;4972952;28;20058;-63
2022/03/10 12:37:48;;;;;;;25.85;15.57;;;;;;;;;;4972173;28;20109;-61
2022/03/10 12:40:21;;;;;;;29.30;14.75;;;;;;;;;;4972786;28;20014;-60
2022/03/10 12:42:47;;;;;;;26.35;15.00;;;;;;;;;;4972682;28;20109;-68
2022/03/10 12:45:22;;;;;;;25.83;15.57;;;;;;;;;;4955408;28;20094;-60
2022/03/10 12:47:54;;;;;;;25.85;15.80;;;;;;;;;;4973271;28;20022;-59
2022/03/10 12:50:20;;;;;;;21.75;12.88;;;;;;;;;;4973299;28;20027;-62
2022/03/10 12:52:47;;;;;;;29.17;16.95;;;;;;;;;;4973848;28;20062;-61
2022/03/10 12:55:13;;;;;;;29.65;17.15;;;;;;;;;;4973183;28;20034;-60
2022/03/10 12:57:39;;;;;;;28.75;16.67;;;;;;;;;;4972677;28;20443;-59
2022/03/10 13:00:18;;;;;;;30.25;18.13;;;;;;;;;;4972959;28;20045;-60
2022/03/10 13:02:44;;;;;;;31.75;17.95;;;;;;;;;;4973084;28;20031;-61
2022/03/10 13:05:13;;;;;;;29.13;17.20;;;;;;;;;;4972608;28;20130;-63
2022/03/10 13:07:39;;;;;;;31.13;16.50;;;;;;;;;;4972172;28;20022;-64
2022/03/10 13:10:11;;;;;;;27.60;16.48;;;;;;;;;;4972461;28;20049;-70
2022/03/10 13:12:42;;;;;;;34.70;17.73;;;;;;;;;;4972633;28;20031;-61
2022/03/10 13:15:09;;;;;;;28.10;16.92;;;;;;;;;;4972324;28;20062;-63
2022/03/10 13:17:39;;;;;;;29.95;15.98;;;;;;;;;;4975966;28;20058;-63
2022/03/10 13:20:09;;;;;;;29.95;16.77;;;;;;;;;;4972427;28;20487;-60
2022/03/10 13:22:35;;;;;;;29.92;17.45;;;;;;;;;;4972049;28;20042;-62
2022/03/10 13:25:01;;;;;;;44.05;25.45;;;;;;;;;;4972285;28;20034;-66
2022/03/10 13:27:29;;;;;;;31.08;17.75;;;;;;;;;;4972413;28;20058;-62
2022/03/10 13:29:55;;;;;;;39.83;23.17;;;;;;;;;;4972051;28;20142;-62
2022/03/10 13:32:22;;;;;;;38.50;22.27;;;;;;;;;;4972040;28;20097;-68
2022/03/10 13:34:50;;;;;;;102.63;47.97;;;;;;;;;;4974697;28;20026;-61
2022/03/10 13:37:17;;;;;;;37.92;21.60;;;;;;;;;;4956446;28;20034;-60
2022/03/10 13:39:44;;;;;;;42.60;22.67;;;;;;;;;;4971352;28;20023;-61
2022/03/10 13:42:13;;;;;;;29.35;17.23;;;;;;;;;;4971416;28;20038;-67
2022/03/10 13:44:39;;;;;;;36.15;20.80;;;;;;;;;;4971772;28;20035;-66
2022/03/10 13:47:06;;;;;;;29.85;17.60;;;;;;;;;;4971497;28;20501;-60
2022/03/10 13:49:43;;;;;;;28.60;16.88;;;;;;;;;;4971457;28;20038;-61
2022/03/10 13:52:16;;;;;;;31.10;18.65;;;;;;;;;;4971483;28;20078;-63
2022/03/10 13:54:52;;;;;;;31.48;17.90;;;;;;;;;;4971976;28;20034;-62
2022/03/10 13:57:19;;;;;;;32.20;18.38;;;;;;;;;;4971171;28;20114;-63
2022/03/10 13:59:45;;;;;;;31.98;18.00;;;;;;;;;;4971244;28;20026;-60
2022/03/10 14:02:25;;;;;;;31.13;18.25;;;;;;;;;;4971189;28;20038;-63
2022/03/10 14:04:52;;;;;;;39.63;23.45;;;;;;;;;;4970626;28;20027;-59
2022/03/10 14:07:18;;;;;;;27.00;15.48;;;;;;;;;;4971258;28;20038;-59
2022/03/10 14:09:44;;;;;;;25.88;15.52;;;;;;;;;;4971036;28;20023;-61
2022/03/10 14:12:17;;;;;;;24.73;15.13;;;;;;;;;;4971200;28;20034;-61
2022/03/10 14:14:47;;;;;;;30.45;17.38;;;;;;;;;;4970905;28;20062;-60
2022/03/10 14:17:14;;;;;;;24.55;15.93;;;;;;;;;;4971188;28;20044;-62
2022/03/10 14:19:40;;;;;;;35.13;19.55;;;;;;;;;;4970957;28;20035;-62
2022/03/10 14:22:14;;;;;;;26.58;14.88;;;;;;;;;;4970486;28;20792;-60
2022/03/10 14:24:40;;;;;;;31.35;16.52;;;;;;;;;;4970557;28;20026;-60
2022/03/10 14:27:07;;;;;;;124.97;56.28;;;;;;;;;;4970992;28;20081;-61
2022/03/10 14:29:37;;;;;;;25.80;14.35;;;;;;;;;;4971450;28;20360;-61
2022/03/10 14:32:03;;;;;;;22.13;12.88;;;;;;;;;;4971216;28;20770;-63
2022/03/10 14:34:29;;;;;;;40.20;19.50;;;;;;;;;;4970830;28;20057;-61
2022/03/10 14:36:55;;;;;;;23.98;14.88;;;;;;;;;;4971022;28;20113;-60
2022/03/10 14:39:21;;;;;;;23.45;14.50;;;;;;;;;;4970665;28;20038;-64
2022/03/10 14:41:48;;;;;;;22.92;14.13;;;;;;;;;;4970981;28;20046;-60
2022/03/10 14:44:14;;;;;;;26.27;14.05;;;;;;;;;;4971180;28;20033;-63
2022/03/10 14:46:40;;;;;;;25.40;14.70;;;;;;;;;;4970737;28;20584;-60
2022/03/10 14:49:07;;;;;;;41.88;23.35;;;;;;;;;;4971014;28;20388;-61
2022/03/10 14:51:35;;;;;;;32.70;16.65;;;;;;;;;;4970566;28;20360;-62
2022/03/10 14:54:01;;;;;;;23.58;14.32;;;;;;;;;;4970971;28;20037;-60
2022/03/10 14:56:28;;;;;;;28.02;16.15;;;;;;;;;;4971145;28;20209;-57
2022/03/10 14:58:54;;;;;;;31.23;17.75;;;;;;;;;;4970777;28;20110;-62
2022/03/10 15:01:20;;;;;;;28.40;15.43;;;;;;;;;;4970843;28;20033;-58
2022/03/10 15:03:46;;;;;;;25.65;14.63;;;;;;;;;;4970646;28;20043;-64
2022/03/10 15:06:13;;;;;;;26.52;14.88;;;;;;;;;;4970577;28;20023;-60
2022/03/10 15:08:39;;;;;;;30.13;17.30;;;;;;;;;;4970744;28;20375;-60
2022/03/10 15:11:06;;;;;;;23.60;14.23;;;;;;;;;;4970564;28;20043;-59
2022/03/10 15:13:32;;;;;;;30.45;17.38;;;;;;;;;;4970690;28;20029;-62
2022/03/10 15:15:59;;;;;;;24.83;15.23;;;;;;;;;;4971756;28;20026;-60
2022/03/10 15:18:25;;;;;;;27.20;16.15;;;;;;;;;;4974250;28;20114;-60
2022/03/10 15:20:51;;;;;;;26.20;15.73;;;;;;;;;;4974283;28;20382;-60
2022/03/10 15:23:18;;;;;;;26.05;15.40;;;;;;;;;;4956721;28;20402;-61
2022/03/10 15:25:44;;;;;;;26.50;14.77;;;;;;;;;;4974582;28;20099;-62
2022/03/10 15:28:15;;;;;;;23.85;14.40;;;;;;;;;;4974829;28;20037;-61
2022/03/10 15:30:41;;;;;;;23.70;14.52;;;;;;;;;;4958856;28;20456;-64
2022/03/10 15:33:09;;;;;;;24.65;14.50;;;;;;;;;;4974169;28;20549;-61
2022/03/10 15:35:36;;;;;;;27.55;15.20;;;;;;;;;;4975225;28;20110;-60
2022/03/10 15:38:03;;;;;;;24.02;14.48;;;;;;;;;;4957874;28;20035;-61
2022/03/10 15:40:29;;;;;;;23.67;12.88;;;;;;;;;;4967885;28;20077;-60
2022/03/10 15:42:55;;;;;;;20.50;12.32;;;;;;;;;;4962085;28;20077;-64
2022/03/10 15:45:21;;;;;;;25.05;12.98;;;;;;;;;;4963220;28;20030;-64
2022/03/10 15:47:49;;;;;;;27.50;13.07;;;;;;;;;;4963669;28;20088;-60
2022/03/10 15:50:16;;;;;;;24.15;13.50;;;;;;;;;;4961883;28;20446;-61
2022/03/10 15:52:43;;;;;;;22.67;12.70;;;;;;;;;;4962643;28;20054;-63
2022/03/10 15:55:09;;;;;;;24.65;13.57;;;;;;;;;;4963419;28;20031;-61
2022/03/10 15:57:36;;;;;;;19.33;11.82;;;;;;;;;;4962302;28;20035;-61
2022/03/10 16:00:03;;;;;;;16.85;8.20;;;;;;;;;;4962571;28;20021;-60
2022/03/10 16:02:29;;;;;;;25.42;13.13;;;;;;;;;;4963568;28;20039;-60
2022/03/10 16:04:55;;;;;;;23.65;11.48;;;;;;;;;;4962520;28;20075;-58
2022/03/10 16:07:23;;;;;;;23.95;13.38;;;;;;;;;;4962385;28;20043;-60
2022/03/10 16:09:49;;;;;;;30.38;16.40;;;;;;;;;;4963659;28;20027;-67
2022/03/10 16:12:16;;;;;;;24.17;14.93;;;;;;;;;;4962462;28;20039;-60
2022/03/10 16:14:42;;;;;;;23.10;12.70;;;;;;;;;;4962326;28;20118;-60
2022/03/10 16:17:08;;;;;;;22.88;13.75;;;;;;;;;;4963537;28;20383;-61
2022/03/10 16:19:35;;;;;;;24.67;12.80;;;;;;;;;;4960451;28;20032;-60
2022/03/10 16:22:01;;;;;;;20.95;12.20;;;;;;;;;;4960440;28;20047;-60
2022/03/10 16:24:27;;;;;;;22.02;11.45;;;;;;;;;;4960032;28;20093;-63
2022/03/10 16:26:56;;;;;;;23.83;13.20;;;;;;;;;;4966272;28;20027;-62
2022/03/10 16:29:22;;;;;;;24.17;12.93;;;;;;;;;;4971013;28;20018;-61
2022/03/10 16:31:48;;;;;;;24.73;13.63;;;;;;;;;;4972357;28;20126;-60
2022/03/10 16:34:14;;;;;;;27.08;14.10;;;;;;;;;;4966314;28;20471;-61
2022/03/10 16:36:41;;;;;;;25.20;13.45;;;;;;;;;;4962452;28;20038;-60
2022/03/10 16:39:10;;;;;;;22.80;13.70;;;;;;;;;;4962746;28;20023;-61
2022/03/10 16:41:36;;;;;;;31.92;17.90;;;;;;;;;;4960924;28;20078;-60
2022/03/10 16:44:04;;;;;;;36.38;14.25;;;;;;;;;;4963741;28;20535;-62
2022/03/10 16:46:30;;;;;;;28.33;16.10;;;;;;;;;;4957525;28;20110;-64
2022/03/10 16:48:56;;;;;;;29.30;15.20;;;;;;;;;;4952470;29;20052;-61
2022/03/10 16:51:22;;;;;;;29.20;14.23;;;;;;;;;;4964225;28;20042;-61
2022/03/10 16:53:50;;;;;;;30.75;14.57;;;;;;;;;;4965298;28;20046;-67
2022/03/10 16:56:19;;;;;;;19.75;10.63;;;;;;;;;;4942672;28;20084;-63
2022/03/10 16:58:45;;;;;;;23.13;11.85;;;;;;;;;;4945822;28;20153;-61
2022/03/10 17:01:12;;;;;;;23.98;12.77;;;;;;;;;;4948478;28;20026;-61
2022/03/10 17:03:38;;;;;;;26.88;14.30;;;;;;;;;;4971622;28;20121;-60
2022/03/10 17:06:05;;;;;;;23.83;11.63;;;;;;;;;;4964900;28;20074;-60
2022/03/10 17:08:31;;;;;;;33.20;18.33;;;;;;;;;;4962690;28;20030;-59
2022/03/10 17:10:58;;;;;;;21.70;12.75;;;;;;;;;;4959430;28;20024;-66
2022/03/10 17:13:24;;;;;;;26.42;13.98;;;;;;;;;;4959274;28;20102;-65
2022/03/10 17:15:50;;;;;;;22.92;13.05;;;;;;;;;;4960087;28;20499;-61
2022/03/10 17:18:16;;;;;;;19.88;11.20;;;;;;;;;;4960238;28;20027;-61
2022/03/10 17:20:42;;;;;;;19.48;10.85;;;;;;;;;;4960609;28;20380;-60
2022/03/10 17:23:08;;;;;;;25.63;12.43;;;;;;;;;;4960902;28;20459;-64
2022/03/10 17:25:34;;;;;;;20.92;11.38;;;;;;;;;;4959930;28;20023;-60
2022/03/10 17:28:00;;;;;;;15.88;7.72;;;;;;;;;;4960637;28;20027;-61
2022/03/10 17:30:28;;;;;;;17.05;8.63;;;;;;;;;;4961973;28;20530;-69
2022/03/10 17:32:54;;;;;;;16.48;8.15;;;;;;;;;;4962835;28;20038;-64
2022/03/10 17:35:20;;;;;;;16.42;8.45;;;;;;;;;;4962387;28;20486;-64
2022/03/10 17:37:47;;;;;;;14.55;8.13;;;;;;;;;;4952124;29;20031;-60
2022/03/10 17:40:13;;;;;;;17.45;6.88;;;;;;;;;;4962504;28;20041;-61
2022/03/10 17:42:40;;;;;;;15.35;5.75;;;;;;;;;;4971888;28;20039;-61
2022/03/10 17:45:06;;;;;;;7.53;3.92;;;;;;;;;;4966113;28;20031;-62
2022/03/10 17:47:32;;;;;;;15.48;7.47;;;;;;;;;;4965732;28;20034;-66
2022/03/10 17:49:58;;;;;;;29.67;11.02;;;;;;;;;;4963954;28;20034;-65
2022/03/10 17:52:25;;;;;;;16.75;8.60;;;;;;;;;;4969155;28;20097;-65
2022/03/10 17:54:51;;;;;;;22.02;10.77;;;;;;;;;;4967837;28;20089;-66
2022/03/10 17:57:17;;;;;;;17.63;7.35;;;;;;;;;;4972314;28;20046;-62
2022/03/10 17:59:44;;;;;;;37.03;14.98;;;;;;;;;;4954352;28;20100;-62
2022/03/10 18:02:10;;;;;;;11.70;6.78;;;;;;;;;;4972152;28;20117;-60
2022/03/10 18:04:36;;;;;;;18.85;8.80;;;;;;;;;;4971825;28;20031;-63